Terminal Aerodrome Forecast
Issued by NWS Albany, NY

Home | Current Version | Previous Version | Text Only | Print | Product List | Glossary On
Versions: 1 2 3 4 5 6 7 8 9 10 11 12 13 14 15 16 17 18 19 20
000
FTUS41 KALY 301732
TAFGFL
TAF
KGFL 301732Z 3018/0118 04007KT P6SM VCSH OVC060
     FM302000 04006KT P6SM OVC060
     FM010200 15005KT P6SM BKN025
     FM010800 18006KT P6SM VCSH BKN015
     FM011400 19009KT P6SM SCT015 OVC035=

USA.gov is the U.S. government's official web portal to all federal, state and local government web resources and services.